Time;durP1;ratioP1;P1;durP2;ratioP2;P2;SDS_P1;SDS_P2;PMS_P1;PMS_P2;Temp;Humidity;BMP_temperature;BMP_pressure;BME280_temperature;BME280_humidity;BME280_pressure;Samples;Min_cycle;Max_cycle;Signal;HPM_P1;HPM_P2
2022/06/14 00:01:22;;;;;;;;;;;15.10;84.80;;;;;;4196028;28;21114;-79
2022/06/14 00:03:26;;;;;;;;;;;15.00;84.90;;;;;;4196190;28;19928;-79
2022/06/14 00:05:28;;;;;;;;;;;15.00;85.00;;;;;;4195319;28;19929;-79
2022/06/14 00:07:29;;;;;;;;;;;15.00;85.00;;;;;;4196773;28;19980;-78
2022/06/14 00:09:31;;;;;;;;;;;14.90;85.50;;;;;;4195374;28;19929;-78
2022/06/14 00:11:34;;;;;;;;;;;14.90;85.90;;;;;;4193754;28;19929;-79
2022/06/14 00:13:35;;;;;;;;;;;14.90;85.60;;;;;;4195786;28;19913;-79
2022/06/14 00:15:37;;;;;;;;;;;14.90;85.50;;;;;;4196246;28;19971;-79
2022/06/14 00:17:39;;;;;;;;;;;15.00;85.40;;;;;;4196996;28;19927;-78
2022/06/14 00:19:40;;;;;;;;;;;14.90;85.60;;;;;;4195920;28;19928;-79
2022/06/14 00:21:42;;;;;;;;;;;14.90;85.70;;;;;;4196220;28;19929;-79
2022/06/14 00:23:44;;;;;;;;;;;14.80;86.00;;;;;;4194402;28;20659;-79
2022/06/14 00:25:48;;;;;;;;;;;14.70;86.10;;;;;;4196033;28;19983;-79
2022/06/14 00:27:50;;;;;;;;;;;14.70;86.50;;;;;;4195686;28;20669;-79
2022/06/14 00:29:51;;;;;;;;;;;14.60;86.80;;;;;;4194709;28;19927;-78
2022/06/14 00:31:53;;;;;;;;;;;14.50;86.70;;;;;;4196787;28;19991;-79
2022/06/14 00:33:55;;;;;;;;;;;14.50;87.40;;;;;;4193575;28;19929;-79
2022/06/14 00:36:01;;;;;;;;;;;14.60;87.60;;;;;;4193295;28;20047;-79
2022/06/14 00:38:03;;;;;;;;;;;;;;;;;;4194501;28;19972;-79
2022/06/14 00:40:05;;;;;;;;;;;;;;;;;;4195182;28;42062;-79
2022/06/14 00:42:21;;;;;;;;;;;14.70;86.60;;;;;;4202555;28;43138;-78
2022/06/14 00:44:24;;;;;;;;;;;14.70;86.80;;;;;;4197242;28;19983;-79
2022/06/14 00:46:35;;;;;;;;;;;14.60;87.20;;;;;;4195648;28;19979;-78
2022/06/14 00:48:37;;;;;;;;;;;14.60;87.50;;;;;;4192594;28;19936;-79
2022/06/14 00:50:39;;;;;;;;;;;;;;;;;;4193638;28;19935;-79
2022/06/14 00:52:41;;;;;;;;;;;;;;;;;;4197813;28;43043;-79
2022/06/14 00:54:44;;;;;;;;;;;14.70;87.00;;;;;;4200068;28;42159;-78
2022/06/14 00:56:56;;;;;;;;;;;14.60;87.20;;;;;;4194071;28;20576;-79
2022/06/14 00:58:58;;;;;;;;;;;;;;;;;;4192005;28;19928;-79
2022/06/14 01:01:00;;;;;;;;;;;;;;;;;;4193181;28;42979;-79
2022/06/14 01:03:05;;;;;;;;;;;14.50;87.40;;;;;;4194286;28;42545;-79
2022/06/14 01:05:11;;;;;;;5.83;3.33;;;;;;;;;;4192131;28;20770;-79
2022/06/14 01:07:13;;;;;;;6.60;3.50;;;;;;;;;;4199268;28;20100;-77
2022/06/14 01:09:18;;;;;;;6.38;4.00;;;;;;;;;;4195966;28;20787;-78
2022/06/14 01:11:36;;;;;;;9.40;4.32;;;;;;;;;;4198717;28;20179;-78
2022/06/14 01:13:38;;;;;;;5.43;3.78;;;;;;;;;;4203792;28;20091;-77
2022/06/14 01:15:42;;;;;;;6.55;3.83;;;;;;;;;;4208191;28;20862;-78
2022/06/14 01:17:48;;;;;;;8.07;3.78;;;14.50;87.50;;;;;;4200709;28;20095;-77
2022/06/14 01:19:50;;;;;;;6.18;3.50;;;14.50;87.50;;;;;;4205108;28;20061;-77
2022/06/14 01:21:52;;;;;;;5.15;3.33;;;;;;;;;;4200152;28;20171;-78
2022/06/14 01:23:54;;;;;;;6.75;4.18;;;;;;;;;;4200018;28;20056;-78
2022/06/14 01:26:01;;;;;;;6.68;3.90;;;;;;;;;;4198399;28;20052;-78
2022/06/14 01:28:04;;;;;;;8.00;3.50;;;;;;;;;;4194154;28;20060;-78
2022/06/14 01:30:18;;;;;;;9.30;3.88;;;;;;;;;;4196589;28;20071;-78
2022/06/14 01:32:20;;;;;;;5.30;3.35;;;;;;;;;;4194917;28;20064;-78
2022/06/14 01:34:24;;;;;;;6.88;4.00;;;;;;;;;;4190753;28;20168;-78
2022/06/14 01:36:28;;;;;;;3.40;3.10;;;;;;;;;;4191850;28;20152;-78
2022/06/14 01:38:30;;;;;;;4.03;3.13;;;;;;;;;;4192640;28;20105;-78
2022/06/14 01:40:32;;;;;;;7.15;3.45;;;;;;;;;;4194773;28;20053;-78
2022/06/14 01:42:55;;;;;;;6.45;4.15;;;;;;;;;;4194991;28;20768;-78
2022/06/14 01:45:05;;;;;;;6.00;3.83;;;;;;;;;;4191126;28;20092;-78
2022/06/14 01:47:26;;;;;;;8.27;4.13;;;;;;;;;;4195776;28;20100;-78
2022/06/14 01:51:54;;;;;;;5.63;3.35;;;;;;;;;;4190126;28;20065;-78
2022/06/14 01:54:05;;;;;;;8.02;3.70;;;;;;;;;;4193633;28;20695;-78
2022/06/14 01:56:14;;;;;;;3.55;3.20;;;;;;;;;;4194412;28;20734;-78
2022/06/14 01:58:19;;;;;;;5.80;3.28;;;;;;;;;;4193197;28;20171;-78
2022/06/14 02:00:27;;;;;;;5.32;3.80;;;;;;;;;;4198073;28;20065;-77
2022/06/14 02:02:33;;;;;;;8.95;4.93;;;;;;;;;;4196888;28;20104;-78
2022/06/14 02:04:57;;;;;;;6.30;4.05;;;;;;;;;;4188240;28;20057;-78
2022/06/14 02:07:18;;;;;;;9.70;4.75;;;;;;;;;;4194196;28;20053;-78
2022/06/14 02:09:24;;;;;;;7.65;4.82;;;;;;;;;;4189058;28;20061;-78
2022/06/14 02:11:29;;;;;;;6.72;4.65;;;;;;;;;;4187530;28;20948;-78
2022/06/14 02:13:35;;;;;;;5.93;4.97;;;;;;;;;;4193869;28;20179;-78
2022/06/14 02:15:41;;;;;;;11.13;6.72;;;;;;;;;;4188724;28;20064;-78
2022/06/14 02:17:47;;;;;;;9.93;7.20;;;;;;;;;;4199365;28;20038;-78
2022/06/14 02:19:57;;;;;;;8.98;5.68;;;;;;;;;;4195103;28;20063;-78
2022/06/14 02:22:05;;;;;;;8.60;5.20;;;;;;;;;;4188932;28;20057;-78
2022/06/14 02:24:10;;;;;;;12.98;7.63;;;;;;;;;;4188313;28;20083;-78
2022/06/14 02:26:17;;;;;;;17.05;10.52;;;;;;;;;;4198878;28;20116;-77
2022/06/14 02:28:25;;;;;;;5.22;4.55;;;;;;;;;;4190703;28;20349;-78
2022/06/14 02:30:30;;;;;;;8.57;4.82;;;;;;;;;;4193163;28;20160;-78
2022/06/14 02:32:47;;;;;;;6.07;4.53;;;;;;;;;;4190764;28;20061;-78
2022/06/14 02:34:51;;;;;;;12.82;6.90;;;;;;;;;;4197638;28;20056;-78
2022/06/14 02:37:12;;;;;;;12.52;7.13;;;;;;;;;;4190285;28;20995;-80
2022/06/14 02:39:31;;;;;;;9.20;5.32;;;;;;;;;;4198364;28;20151;-80
2022/06/14 02:41:39;;;;;;;6.97;4.82;;;;;;;;;;4199234;28;20249;-81
2022/06/14 02:44:04;;;;;;;7.95;4.30;;;;;;;;;;4197851;28;20063;-78
2022/06/14 02:46:16;;;;;;;11.45;5.55;;;;;;;;;;4191281;28;20056;-78
2022/06/14 02:48:24;;;;;;;7.32;5.93;;;;;;;;;;4191968;28;20049;-78
2022/06/14 02:50:33;;;;;;;7.43;4.63;;;;;;;;;;4194408;28;20074;-78
2022/06/14 02:52:39;;;;;;;10.23;4.70;;;;;;;;;;4195171;28;20061;-79
2022/06/14 02:54:45;;;;;;;8.93;5.07;;;;;;;;;;4192993;28;20171;-79
2022/06/14 02:56:59;;;;;;;6.75;4.35;;;;;;;;;;4185153;28;20091;-79
2022/06/14 02:59:28;;;;;;;4.70;4.03;;;;;;;;;;4201151;28;20179;-77
2022/06/14 03:01:33;;;;;;;6.43;4.57;;;;;;;;;;4198601;28;20087;-78
2022/06/14 03:03:44;;;;;;;7.35;4.20;;;;;;;;;;4194554;28;20063;-78
2022/06/14 03:05:51;;;;;;;8.35;4.82;;;;;;;;;;4190867;28;20148;-79
2022/06/14 03:08:00;;;;;;;18.77;9.23;;;;;;;;;;4201802;28;20052;-80
2022/06/14 03:10:02;;;;;;;15.60;8.73;;;;;;;;;;4197753;28;20083;-79
2022/06/14 03:12:14;;;;;;;10.18;6.72;;;;;;;;;;4199281;28;20886;-79
2022/06/14 03:14:22;;;;;;;7.70;5.22;;;;;;;;;;4202750;28;20072;-78
2022/06/14 03:16:29;;;;;;;6.90;4.65;;;;;;;;;;4198089;28;20072;-79
2022/06/14 03:18:50;;;;;;;4.50;4.10;;;;;;;;;;4209325;28;20061;-78
2022/06/14 03:20:57;;;;;;;19.83;10.43;;;;;;;;;;4209704;28;20053;-78
2022/06/14 03:23:08;;;;;;;25.58;12.45;;;;;;;;;;4196743;28;20063;-79
2022/06/14 03:25:10;;;;;;;13.18;8.90;;;;;;;;;;4202662;28;20049;-79
2022/06/14 03:27:16;;;;;;;13.05;7.43;;;;;;;;;;4201082;28;20061;-79
2022/06/14 03:29:21;;;;;;;8.57;5.78;;;;;;;;;;4201834;28;20056;-79
2022/06/14 03:31:44;;;;;;;11.65;7.00;;;;;;;;;;4193582;28;20064;-79
2022/06/14 03:33:48;;;;;;;13.40;9.35;;;;;;;;;;4201417;28;20055;-79
2022/06/14 03:35:51;;;;;;;14.05;7.20;;;;;;;;;;4204980;28;20056;-79
2022/06/14 03:37:55;;;;;;;10.65;6.75;;;;;;;;;;4204651;28;20902;-79
2022/06/14 03:40:00;;;;;;;11.32;6.20;;;;;;;;;;4201960;28;20787;-79
2022/06/14 03:42:04;;;;;;;12.15;6.85;;;;;;;;;;4199121;28;20084;-79
2022/06/14 03:44:07;;;;;;;5.88;4.38;;;;;;;;;;4208056;28;20159;-78
2022/06/14 03:46:26;;;;;;;7.13;5.63;;;;;;;;;;4201149;28;20061;-78
2022/06/14 03:48:28;;;;;;;7.07;5.50;;;;;;;;;;4199032;28;20052;-78
2022/06/14 03:50:36;;;;;;;11.52;6.15;;;;;;;;;;4202777;28;20151;-80
2022/06/14 03:52:48;;;;;;;11.18;5.88;;;;;;;;;;4201641;28;20061;-80
2022/06/14 03:54:55;;;;;;;8.60;5.78;;;;;;;;;;4202201;28;20147;-79
2022/06/14 03:57:07;;;;;;;9.13;5.65;;;;;;;;;;4198027;28;20228;-80
2022/06/14 03:59:24;;;;;;;7.00;5.53;;;;;;;;;;4198903;28;20063;-79
2022/06/14 04:01:31;;;;;;;6.40;4.78;;;;;;;;;;4200097;28;20067;-79
2022/06/14 04:03:45;;;;;;;4.78;4.15;;;;;;;;;;4200559;28;20048;-78
2022/06/14 04:06:02;;;;;;;6.13;4.38;;;;;;;;;;4196828;28;20082;-77
2022/06/14 04:08:29;;;;;;;7.47;4.32;;;;;;;;;;4194920;28;20176;-78
2022/06/14 04:10:31;;;;;;;11.05;4.53;;;;;;;;;;4193157;28;20088;-78
2022/06/14 04:12:48;;;;;;;6.03;4.20;;;;;;;;;;4196629;28;20052;-78
2022/06/14 04:14:55;;;;;;;4.57;4.00;;;;;;;;;;4197844;28;20354;-79
2022/06/14 04:17:06;;;;;;;4.80;4.15;;;;;;;;;;4195928;28;20061;-78
2022/06/14 04:19:13;;;;;;;5.25;4.20;;;;;;;;;;4201637;28;20053;-78
2022/06/14 04:21:28;;;;;;;8.35;4.80;;;;;;;;;;4195139;28;20061;-78
2022/06/14 04:23:57;;;;;;;7.78;4.13;;;;;;;;;;4194318;28;20144;-78
2022/06/14 04:26:03;;;;;;;5.93;4.03;;;;;;;;;;4193048;28;20054;-78
2022/06/14 04:28:05;;;;;;;6.90;4.18;;;;;;;;;;4189258;28;20057;-78
2022/06/14 04:30:12;;;;;;;7.78;4.50;;;;;;;;;;4192931;28;20064;-78
2022/06/14 04:32:18;;;;;;;9.07;5.05;;;;;;;;;;4187013;28;20148;-79
2022/06/14 04:34:29;;;;;;;8.90;4.43;;;;;;;;;;4187128;28;20099;-78
2022/06/14 04:36:34;;;;;;;7.55;4.45;;;;;;;;;;4191549;28;20088;-78
2022/06/14 04:38:39;;;;;;;8.50;4.75;;;;;;;;;;4194334;28;20107;-79
2022/06/14 04:40:43;;;;;;;6.35;4.50;;;;;;;;;;4189672;28;20753;-77
2022/06/14 04:43:00;;;;;;;16.30;5.07;;;;;;;;;;4194763;28;20934;-77
2022/06/14 04:45:07;;;;;;;8.85;4.65;;;;;;;;;;4191119;28;20049;-78
2022/06/14 04:47:15;;;;;;;12.07;4.60;;;;;;;;;;4197450;28;20057;-79
2022/06/14 04:49:23;;;;;;;4.85;4.10;;;;;;;;;;4197740;28;20809;-78
2022/06/14 04:51:32;;;;;;;6.35;4.28;;;;;;;;;;4201760;28;20057;-78
2022/06/14 04:53:37;;;;;;;4.43;4.00;;;;;;;;;;4208056;28;20060;-77
2022/06/14 04:55:43;;;;;;;7.63;4.10;;;;;;;;;;4209726;28;20310;-78
2022/06/14 04:57:48;;;;;;;7.95;3.60;;;;;;;;;;4198537;28;20055;-79
2022/06/14 04:59:53;;;;;;;7.63;3.58;;;;;;;;;;4201451;28;20057;-78
2022/06/14 05:01:58;;;;;;;6.43;3.38;;;;;;;;;;4195073;28;20179;-78
2022/06/14 05:04:00;;;;;;;5.90;4.03;;;;;;;;;;4198523;28;20793;-79
2022/06/14 05:06:06;;;;;;;10.35;5.82;;;;;;;;;;4194884;28;20061;-77
2022/06/14 05:08:08;;;;;;;12.07;4.75;;;;;;;;;;4200693;28;20057;-79
2022/06/14 05:10:23;;;;;;;4.65;3.60;;;;;;;;;;4200233;28;20147;-78
2022/06/14 05:12:31;;;;;;;5.40;3.97;;;;;;;;;;4197432;28;20057;-78
2022/06/14 05:14:53;;;;;;;6.38;3.75;;;;;;;;;;4196144;28;20061;-79
2022/06/14 05:17:15;;;;;;;9.07;4.75;;;;;;;;;;4198270;28;20068;-79
2022/06/14 05:19:23;;;;;;;8.00;4.13;;;;;;;;;;4198870;28;20112;-81
2022/06/14 05:21:32;;;;;;;5.70;4.20;;;;;;;;;;4196086;28;20064;-78
2022/06/14 05:23:37;;;;;;;7.50;5.10;;;;;;;;;;4196318;28;20057;-78
2022/06/14 05:25:49;;;;;;;4.97;3.95;;;;;;;;;;4201928;28;20049;-78
2022/06/14 05:28:00;;;;;;;9.63;4.28;;;;;;;;;;4202205;28;20061;-78
2022/06/14 05:30:24;;;;;;;6.55;3.75;;;;;;;;;;4211380;28;20045;-78
2022/06/14 05:32:44;;;;;;;8.77;3.92;;;;;;;;;;4205424;28;20033;-79
2022/06/14 05:34:55;;;;;;;13.30;5.13;;;;;;;;;;4198110;28;20061;-79
2022/06/14 05:36:57;;;;;;;;;;;;;;;;;;4201661;28;20124;-79
2022/06/14 05:39:02;;;;;;;4.88;2.90;;;;;;;;;;4192721;28;43214;-77
2022/06/14 05:41:11;;;;;;;10.23;3.80;;;;;;;;;;4193516;28;21228;-76
2022/06/14 05:43:14;;;;;;;5.18;3.20;;;;;;;;;;4199214;28;20053;-80
2022/06/14 05:45:18;;;;;;;7.28;3.90;;;;;;;;;;4198065;28;20696;-80
2022/06/14 05:47:23;;;;;;;9.32;4.03;;;;;;;;;;4197196;28;20052;-80
2022/06/14 05:49:31;;;;;;;7.25;4.00;;;;;;;;;;4194188;28;20061;-81
2022/06/14 05:51:40;;;;;;;14.73;4.40;;;;;;;;;;4197747;28;20051;-80
2022/06/14 05:53:48;;;;;;;6.60;3.88;;;;;;;;;;4192729;28;20143;-80
2022/06/14 05:55:53;;;;;;;8.65;3.83;;;;;;;;;;4187232;28;20085;-79
2022/06/14 05:58:08;;;;;;;5.72;3.35;;;;;;;;;;4187023;28;20053;-78
2022/06/14 06:00:24;;;;;;;9.32;3.88;;;;;;;;;;4187201;28;20557;-77
2022/06/14 06:02:29;;;;;;;7.35;3.05;;;;;;;;;;4194842;28;20062;-80
2022/06/14 06:04:40;;;;;;;8.05;3.97;;;;;;;;;;4188736;28;20053;-81
2022/06/14 06:06:44;;;;;;;6.47;3.65;;;;;;;;;;4198772;28;20083;-80
2022/06/14 06:08:49;;;;;;;5.60;3.63;;;;;;;;;;4196181;28;20079;-79
2022/06/14 06:10:53;;;;;;;7.40;4.30;;;;;;;;;;4192110;28;20058;-76
2022/06/14 06:12:58;;;;;;;6.82;3.72;;;;;;;;;;4191255;28;20151;-77
2022/06/14 06:15:22;;;;;;;7.18;4.60;;;;;;;;;;4195701;28;20103;-78
2022/06/14 06:17:34;;;;;;;5.65;4.35;;;;;;;;;;4185501;28;20118;-77
2022/06/14 06:19:39;;;;;;;8.27;3.70;;;;;;;;;;4191826;28;20064;-77
2022/06/14 06:22:00;;;;;;;7.38;4.53;;;;;;;;;;4191986;28;20049;-78
2022/06/14 06:24:20;;;;;;;7.78;3.78;;;;;;;;;;4188480;28;20057;-77
2022/06/14 06:26:23;;;;;;;5.32;3.42;;;;;;;;;;4190701;28;20061;-77
2022/06/14 06:28:29;;;;;;;6.95;4.50;;;;;;;;;;4190162;28;20819;-77
2022/06/14 06:30:34;;;;;;;6.30;4.00;;;;;;;;;;4191108;28;20060;-77
2022/06/14 06:32:37;;;;;;;6.85;4.07;;;;;;;;;;4195421;28;20947;-77
2022/06/14 06:34:41;;;;;;;10.30;4.55;;;;;;;;;;4197665;28;20058;-77
2022/06/14 06:37:03;;;;;;;5.63;3.45;;;;;;;;;;4198160;28;20100;-77
2022/06/14 06:39:08;;;;;;;9.15;5.65;;;;;;;;;;4198592;28;20603;-77
2022/06/14 06:43:35;;;;;;;5.78;3.70;;;;;;;;;;4200790;28;20052;-77
2022/06/14 06:45:39;;;;;;;6.75;3.72;;;;;;;;;;4200502;28;20708;-75
2022/06/14 06:48:00;;;;;;;9.20;3.95;;;;;;;;;;4193152;28;20064;-77
2022/06/14 06:50:02;;;;;;;;;;;;;;;;;;4199633;28;20061;-75
2022/06/14 06:52:05;;;;;;;9.20;3.95;;;;;;;;;;4196995;28;44542;-77
2022/06/14 06:54:13;;;;;;;5.60;3.78;;;;;;;;;;4190772;28;20908;-74
2022/06/14 06:56:15;;;;;;;8.77;3.70;;;;;;;;;;4194625;28;20594;-75
2022/06/14 06:58:21;;;;;;;4.88;3.30;;;;;;;;;;4197888;28;20099;-75
2022/06/14 07:00:24;;;;;;;8.02;3.60;;;;;;;;;;4197867;28;20792;-75
2022/06/14 07:02:31;;;;;;;3.72;2.95;;;;;;;;;;4195656;28;20799;-76
2022/06/14 07:06:59;;;;;;;10.57;2.90;;;;;;;;;;4211059;22;20701;-79
2022/06/14 07:09:09;;;;;;;5.20;3.30;;;;;;;;;;4199959;28;20053;-78
2022/06/14 07:11:15;;;;;;;3.45;2.90;;;;;;;;;;4200126;28;20057;-78
2022/06/14 07:13:33;;;;;;;5.10;3.13;;;;;;;;;;4198313;28;20067;-80
2022/06/14 07:15:35;;;;;;;4.18;3.70;;;;;;;;;;4197542;28;20229;-78
2022/06/14 07:17:40;;;;;;;6.38;3.00;;;;;;;;;;4195216;28;20056;-79
2022/06/14 07:19:57;;;;;;;7.78;4.05;;;;;;;;;;4189509;28;20200;-79
2022/06/14 07:22:03;;;;;;;6.68;4.38;;;;;;;;;;4186750;28;20064;-79
2022/06/14 07:24:10;;;;;;;9.07;3.85;;;;;;;;;;4189936;28;20061;-77
2022/06/14 07:26:16;;;;;;;5.55;3.60;;;;;;;;;;4187106;28;20147;-79
2022/06/14 07:28:20;;;;;;;5.57;3.72;;;;;;;;;;4187603;28;20086;-80
2022/06/14 07:30:25;;;;;;;3.67;2.70;;;;;;;;;;4190773;28;20050;-77
2022/06/14 07:32:31;;;;;;;4.43;3.28;;;;;;;;;;4190179;28;20064;-78
2022/06/14 07:34:34;;;;;;;7.97;3.38;;;;;;;;;;4192747;28;20057;-78
2022/06/14 07:36:48;;;;;;;10.35;3.05;;;;;;;;;;4190413;28;20057;-79
2022/06/14 07:39:04;;;;;;;6.30;2.63;;;;;;;;;;4189764;28;20061;-78
2022/06/14 07:41:21;;;;;;;4.45;3.03;;;;;;;;;;4190923;28;20064;-79
2022/06/14 07:43:24;;;;;;;9.95;3.10;;;;;;;;;;4200659;28;20068;-76
2022/06/14 07:45:29;;;;;;;3.78;2.72;;;;;;;;;;4204613;28;20081;-79
2022/06/14 07:47:34;;;;;;;5.93;3.25;;;;;;;;;;4193767;28;20105;-76
2022/06/14 07:49:48;;;;;;;6.00;2.47;;;;;;;;;;4190909;28;20094;-79
2022/06/14 07:51:57;;;;;;;5.45;2.78;;;;;;;;;;4190331;28;20092;-79
2022/06/14 07:54:03;;;;;;;5.55;2.67;;;;;;;;;;4190626;28;20662;-78
2022/06/14 07:56:22;;;;;;;5.30;2.30;;;;;;;;;;4189756;28;20906;-78
2022/06/14 07:58:32;;;;;;;3.30;2.22;;;;;;;;;;4188094;28;20092;-79
2022/06/14 08:03:03;;;;;;;6.95;2.65;;;;;;;;;;4185080;28;20780;-77
2022/06/14 08:05:10;;;;;;;11.77;3.40;;;;;;;;;;4183921;28;20059;-75
2022/06/14 08:07:22;;;;;;;11.07;2.70;;;;;;;;;;4179250;28;20062;-75
2022/06/14 08:09:34;;;;;;;5.28;2.95;;;;;;;;;;4181587;28;20104;-77
2022/06/14 08:11:39;;;;;;;7.18;2.80;;;;;;;;;;4182357;28;20053;-79
2022/06/14 08:13:44;;;;;;;3.45;2.75;;;;;;;;;;4184526;28;20064;-78
2022/06/14 08:15:48;;;;;;;4.60;3.05;;;;;;;;;;4184705;28;20045;-76
2022/06/14 08:17:59;;;;;;;6.85;2.40;;;;;;;;;;4183576;28;20169;-78
2022/06/14 08:20:12;;;;;;;4.18;2.03;;;;;;;;;;4184240;28;20057;-77
2022/06/14 08:22:17;;;;;;;4.30;2.25;;;;;;;;;;4183824;28;20918;-77
2022/06/14 08:24:22;;;;;;;3.92;2.75;;;;;;;;;;4183702;28;20061;-78
2022/06/14 08:26:24;;;;;;;6.88;2.90;;;;;;;;;;4183623;28;20063;-76
2022/06/14 08:28:30;;;;;;;9.25;3.05;;;;;;;;;;4185055;28;20057;-78
2022/06/14 08:30:55;;;;;;;3.83;1.90;;;;;;;;;;4183549;28;20100;-77
2022/06/14 08:33:01;;;;;;;4.05;2.30;;;;;;;;;;4173389;28;20099;-77
2022/06/14 08:35:16;;;;;;;7.35;3.30;;;;;;;;;;4184523;28;20050;-76
2022/06/14 08:37:28;;;;;;;6.07;2.78;;;;;;;;;;4184737;28;20079;-76
2022/06/14 08:39:33;;;;;;;3.97;2.40;;;;;;;;;;4184573;28;20065;-79
2022/06/14 08:41:35;;;;;;;3.28;1.90;;;;;;;;;;4183092;28;20050;-77
2022/06/14 08:43:45;;;;;;;5.38;2.63;;;;;;;;;;4182248;28;20057;-76
2022/06/14 08:46:06;;;;;;;5.50;2.65;;;;;;;;;;4181729;28;20061;-77
2022/06/14 08:48:08;;;;;;;;;;;;;;;;;;4182189;28;20062;-76
2022/06/14 08:50:29;;;;;;;3.10;2.47;;;;;;;;;;4191232;28;44450;-75
2022/06/14 08:52:49;;;;;;;5.13;2.35;;;;;;;;;;4186127;28;20857;-77
2022/06/14 08:55:00;;;;;;;3.75;2.60;;;;;;;;;;4182237;28;20093;-79
2022/06/14 08:57:11;;;;;;;5.40;2.25;;;;;;;;;;4183952;28;20061;-77
2022/06/14 08:59:26;;;;;;;3.42;2.10;;;;;;;;;;4182632;28;20089;-78
2022/06/14 09:01:43;;;;;;;4.68;2.15;;;;;;;;;;4184394;28;20067;-76
2022/06/14 09:04:17;;;;;;;2.45;1.73;;;;;;;;;;4183345;28;20080;-77
2022/06/14 09:06:27;;;;;;;7.38;2.22;;;;;;;;;;4151292;28;20057;-79
2022/06/14 09:08:52;;;;;;;7.70;2.60;;;;;;;;;;4181365;28;20200;-77
2022/06/14 09:10:54;;;;;;;4.38;2.10;;;;;;;;;;4175506;28;20156;-76
2022/06/14 09:12:59;;;;;;;3.33;2.10;;;;;;;;;;4182425;28;20046;-78
2022/06/14 09:15:38;;;;;;;3.17;2.50;;;;;;;;;;4182907;28;20101;-78
2022/06/14 09:17:55;;;;;;;6.07;3.00;;;;;;;;;;4130606;28;20161;-78
2022/06/14 09:20:10;;;;;;;2.95;2.33;;;;;;;;;;4160462;28;20104;-76
2022/06/14 09:22:31;;;;;;;3.30;1.95;;;;;;;;;;4181762;28;20661;-76
2022/06/14 09:24:36;;;;;;;4.10;2.33;;;;;;;;;;4185479;28;20068;-76
2022/06/14 09:26:57;;;;;;;3.47;1.95;;;;;;;;;;4184838;28;20208;-79
2022/06/14 09:28:59;;;;;;;2.40;1.90;;;;;;;;;;4187821;28;20069;-77
2022/06/14 09:31:10;;;;;;;4.28;2.42;;;;;;;;;;4188628;28;20065;-79
2022/06/14 09:33:21;;;;;;;3.15;1.77;;;;;;;;;;4189645;28;20081;-77
2022/06/14 09:35:33;;;;;;;3.80;1.98;;;;;;;;;;4189018;28;20060;-79
2022/06/14 09:37:40;;;;;;;2.25;1.55;;;;;;;;;;4187054;28;20072;-77
2022/06/14 09:40:01;;;;;;;4.43;2.25;;;;;;;;;;4183459;28;20072;-77
2022/06/14 09:42:13;;;;;;;4.57;2.20;;;;;;;;;;4183627;28;20099;-78
2022/06/14 09:44:15;;;;;;;2.47;2.28;;;;;;;;;;4185696;28;20787;-76
2022/06/14 09:46:34;;;;;;;3.38;1.85;;;;;;;;;;4180305;28;20057;-77
2022/06/14 09:48:59;;;;;;;3.58;1.92;;;;;;;;;;4178530;28;20152;-76
2022/06/14 09:51:17;;;;;;;1.67;1.58;;;;;;;;;;4180881;28;20089;-77
2022/06/14 09:53:22;;;;;;;6.78;2.47;;;;;;;;;;4190004;28;20951;-77
2022/06/14 09:55:36;;;;;;;3.70;2.00;;;;;;;;;;4194169;28;20847;-76
2022/06/14 09:58:03;;;;;;;3.22;1.70;;;;;;;;;;4189682;28;20045;-75
2022/06/14 10:00:24;;;;;;;17.55;1.85;;;;;;;;;;4187370;28;20067;-76
2022/06/14 10:02:37;;;;;;;7.20;2.35;;;;;;;;;;4186529;28;20124;-77
2022/06/14 10:04:49;;;;;;;3.20;1.63;;;;;;;;;;4186553;28;20061;-78
2022/06/14 10:06:54;;;;;;;5.40;2.15;;;;;;;;;;4184895;28;20064;-77
2022/06/14 10:08:56;;;;;;;3.90;2.15;;;;;;;;;;4181328;28;20069;-78
2022/06/14 10:11:11;;;;;;;2.90;1.80;;;;;;;;;;4179689;28;20061;-75
2022/06/14 10:13:35;;;;;;;4.50;1.60;;;;;;;;;;4178401;28;20058;-74
2022/06/14 10:15:56;;;;;;;4.97;2.10;;;;;;;;;;4180616;28;20113;-77
2022/06/14 10:18:13;;;;;;;3.75;1.52;;;;;;;;;;4180717;28;20115;-76
2022/06/14 10:20:31;;;;;;;3.63;1.38;;;;;;;;;;4180986;28;20048;-76
2022/06/14 10:22:44;;;;;;;6.97;2.35;;;;;;;;;;4181155;28;20644;-76
2022/06/14 10:24:46;;;;;;;4.45;1.55;;;;;;;;;;4181234;28;20050;-78
2022/06/14 10:29:51;;;;;;;4.22;2.38;;;;;;;;;;4185495;28;20064;-80
2022/06/14 10:31:53;;;;;;;3.53;2.28;;;;;;;;;;4155828;28;20053;-76
2022/06/14 10:34:06;;;;;;;6.20;2.15;;;;;;;;;;4185829;28;20061;-79
2022/06/14 10:36:28;;;;;;;5.57;2.70;;;;;;;;;;4182154;28;20065;-77
2022/06/14 10:38:41;;;;;;;2.67;2.15;;;;;;;;;;4173408;28;20186;-78
2022/06/14 10:40:43;;;;;;;2.83;1.75;;;;;;;;;;4180268;28;20061;-78
2022/06/14 10:42:52;;;;;;;2.88;1.70;;;;;;;;;;4179274;28;20058;-76
2022/06/14 10:45:11;;;;;;;6.32;2.35;;;;;;;;;;4179672;28;20872;-76
2022/06/14 10:47:20;;;;;;;2.17;1.27;;;;;;;;;;4179271;28;20809;-75
2022/06/14 10:49:22;;;;;;;4.75;2.20;;;;;;;;;;4179654;28;20061;-75
2022/06/14 10:51:30;;;;;;;2.70;2.05;;;;;;;;;;4179159;28;20933;-76
2022/06/14 10:53:55;;;;;;;3.65;1.60;;;;;;;;;;4180763;28;20057;-76
2022/06/14 10:56:23;;;;;;;5.95;2.08;;;;;;;;;;4174776;28;20045;-77
2022/06/14 10:58:46;;;;;;;4.07;1.90;;;;;;;;;;4178015;28;20053;-77
2022/06/14 11:00:51;;;;;;;5.93;2.10;;;;;;;;;;4187756;28;20184;-74
2022/06/14 11:03:00;;;;;;;3.63;1.90;;;;;;;;;;4188778;28;20661;-78
2022/06/14 11:05:21;;;;;;;5.93;1.70;;;;;;;;;;4181189;28;20096;-76
2022/06/14 11:07:26;;;;;;;4.35;1.80;;;;;;;;;;4177342;28;20868;-76
2022/06/14 11:09:29;;;;;;;3.95;1.88;;;;;;;;;;4178904;28;20172;-76
2022/06/14 11:11:51;;;;;;;3.95;2.25;;;;;;;;;;4181137;28;20062;-76
2022/06/14 11:14:16;;;;;;;3.85;1.65;;;;;;;;;;4180172;28;20842;-75
2022/06/14 11:16:30;;;;;;;6.07;2.03;;;;;;;;;;4186023;28;20169;-77
2022/06/14 11:18:51;;;;;;;5.43;2.05;;;;;;;;;;4188040;28;20123;-75
2022/06/14 11:21:05;;;;;;;9.77;1.92;;;;;;;;;;4183050;28;20064;-74
2022/06/14 11:23:08;;;;;;;;;;;;;;;;;;4185332;28;20064;-76
2022/06/14 11:25:10;;;;;;;;;;;;;;;;;;4187316;28;42302;-77
2022/06/14 11:27:12;;;;;;;;;;;;;;;;;;4186323;28;43389;-76
2022/06/14 11:29:14;;;;;;;;;;;;;;;;;;4185226;28;44755;-75
2022/06/14 11:31:16;;;;;;;;;;;;;;;;;;4180921;28;41741;-77
2022/06/14 11:33:18;;;;;;;;;;;;;;;;;;4181123;28;43396;-76
2022/06/14 11:35:20;;;;;;;;;;;;;;;;;;4180675;28;43313;-75
2022/06/14 11:37:22;;;;;;;;;;;;;;;;;;4187082;28;43365;-77
2022/06/14 11:39:24;;;;;;;;;;;;;;;;;;4188014;28;44314;-75
2022/06/14 11:41:27;;;;;;;;;;;;;;;;;;4187913;28;43251;-76
2022/06/14 11:43:29;;;;;;;;;;;;;;;;;;4185541;28;41124;-77
2022/06/14 11:45:31;;;;;;;;;;;;;;;;;;4186726;28;43245;-76
2022/06/14 11:47:33;;;;;;;;;;;;;;;;;;4186457;28;44515;-76
2022/06/14 11:49:35;;;;;;;;;;;;;;;;;;4185179;28;44694;-76
2022/06/14 11:51:37;;;;;;;;;;;;;;;;;;4182713;28;41742;-76
2022/06/14 11:53:39;;;;;;;;;;;;;;;;;;4184260;28;44267;-75
2022/06/14 11:55:41;;;;;;;;;;;;;;;;;;4185984;28;43569;-74
2022/06/14 11:57:44;;;;;;;;;;;;;;;;;;4188857;28;42257;-75
2022/06/14 11:59:46;;;;;;;;;;;;;;;;;;4187323;28;44300;-74
2022/06/14 12:01:48;;;;;;;;;;;;;;;;;;4188341;28;43219;-74
2022/06/14 12:03:50;;;;;;;;;;;;;;;;;;4193820;28;44239;-75
2022/06/14 12:05:52;;;;;;;;;;;;;;;;;;4189309;28;43490;-75
2022/06/14 12:07:54;;;;;;;;;;;;;;;;;;4183952;28;43239;-75
2022/06/14 12:09:56;;;;;;;;;;;;;;;;;;4183027;28;42651;-76
2022/06/14 12:11:58;;;;;;;;;;;;;;;;;;4179444;28;44427;-77
2022/06/14 12:14:00;;;;;;;;;;;;;;;;;;4183755;28;41908;-75
2022/06/14 12:16:02;;;;;;;;;;;;;;;;;;4182547;28;42952;-76
2022/06/14 12:18:04;;;;;;;;;;;;;;;;;;4182755;28;44338;-74
2022/06/14 12:20:06;;;;;;;;;;;;;;;;;;4182461;28;43670;-76
2022/06/14 12:22:28;;;;;;;;;;;;;;;;;;4181670;28;43481;-76
2022/06/14 12:26:52;;;;;;;;;;;;;;;;;;4186004;28;45008;-75
2022/06/14 12:28:54;;;;;;;;;;;;;;;;;;4180080;28;43390;-76
2022/06/14 12:30:56;;;;;;;;;;;;;;;;;;4178430;28;45388;-75
2022/06/14 12:32:58;;;;;;;;;;;;;;;;;;4181764;28;43873;-77
2022/06/14 12:35:00;;;;;;;;;;;;;;;;;;4181230;28;43228;-77
2022/06/14 12:37:02;;;;;;;;;;;;;;;;;;4182740;28;43250;-77
2022/06/14 12:39:04;;;;;;;;;;;;;;;;;;4180917;28;43631;-76
2022/06/14 12:41:06;;;;;;;;;;;;;;;;;;4183011;28;44150;-78
2022/06/14 12:43:08;;;;;;;;;;;;;;;;;;4182386;28;43304;-78
2022/06/14 12:45:10;;;;;;;;;;;;;;;;;;4185116;28;43594;-77
2022/06/14 12:47:12;;;;;;;;;;;;;;;;;;4184441;28;43186;-78
2022/06/14 12:49:14;;;;;;;;;;;;;;;;;;4185057;28;44308;-77
2022/06/14 12:51:16;;;;;;;;;;;;;;;;;;4182833;28;43250;-77
2022/06/14 12:53:19;;;;;;;;;;;;;;;;;;4182757;28;44573;-76
2022/06/14 12:55:21;;;;;;;;;;;;;;;;;;4182225;28;44813;-76
2022/06/14 12:57:23;;;;;;;;;;;;;;;;;;4180689;28;43227;-76
2022/06/14 12:59:25;;;;;;;;;;;;;;;;;;4180692;28;43267;-78
2022/06/14 13:01:27;;;;;;;;;;;;;;;;;;4182719;28;43230;-76
2022/06/14 13:03:29;;;;;;;;;;;;;;;;;;4182625;28;43468;-77
2022/06/14 13:05:31;;;;;;;;;;;;;;;;;;4192858;28;43117;-77
2022/06/14 13:07:33;;;;;;;;;;;;;;;;;;4188377;28;43167;-79
2022/06/14 13:09:35;;;;;;;;;;;;;;;;;;4182943;28;44487;-78
2022/06/14 13:11:38;;;;;;;;;;;;;;;;;;4184004;28;44329;-78
2022/06/14 13:13:40;;;;;;;;;;;;;;;;;;4184060;28;43444;-76
2022/06/14 13:15:42;;;;;;;;;;;;;;;;;;4187094;28;44344;-78
2022/06/14 13:17:44;;;;;;;;;;;;;;;;;;4187566;28;41619;-76